sensor_id;sensor_type;location;lat;lon;timestamp;P1;durP1;ratioP1;P2;durP2;ratioP2
31760;SDS011;18335;51.486;7.562;2022-10-03T00:00:41;18.88;;;5.00;;
31760;SDS011;18335;51.486;7.562;2022-10-03T00:03:35;22.27;;;6.75;;
31760;SDS011;18335;51.486;7.562;2022-10-03T00:06:15;18.10;;;5.32;;
31760;SDS011;18335;51.486;7.562;2022-10-03T00:08:56;19.05;;;5.53;;
31760;SDS011;18335;51.486;7.562;2022-10-03T00:11:36;18.35;;;5.15;;
31760;SDS011;18335;51.486;7.562;2022-10-03T00:14:13;21.67;;;5.68;;
31760;SDS011;18335;51.486;7.562;2022-10-03T00:16:47;22.88;;;5.82;;
31760;SDS011;18335;51.486;7.562;2022-10-03T00:19:23;20.88;;;5.20;;
31760;SDS011;18335;51.486;7.562;2022-10-03T00:22:00;22.33;;;5.97;;
31760;SDS011;18335;51.486;7.562;2022-10-03T00:24:40;22.77;;;4.70;;
31760;SDS011;18335;51.486;7.562;2022-10-03T00:27:17;23.02;;;5.53;;
31760;SDS011;18335;51.486;7.562;2022-10-03T00:30:00;16.30;;;5.30;;
31760;SDS011;18335;51.486;7.562;2022-10-03T00:32:40;15.90;;;4.10;;
31760;SDS011;18335;51.486;7.562;2022-10-03T00:35:19;23.20;;;5.20;;
31760;SDS011;18335;51.486;7.562;2022-10-03T00:38:04;22.40;;;5.82;;
31760;SDS011;18335;51.486;7.562;2022-10-03T00:40:57;21.25;;;4.93;;
31760;SDS011;18335;51.486;7.562;2022-10-03T00:43:47;19.15;;;5.50;;
31760;SDS011;18335;51.486;7.562;2022-10-03T00:49:48;19.02;;;5.03;;
31760;SDS011;18335;51.486;7.562;2022-10-03T00:52:42;22.60;;;5.20;;
31760;SDS011;18335;51.486;7.562;2022-10-03T00:55:22;21.13;;;5.38;;
31760;SDS011;18335;51.486;7.562;2022-10-03T00:58:02;17.13;;;4.50;;
31760;SDS011;18335;51.486;7.562;2022-10-03T01:00:41;20.08;;;5.43;;
31760;SDS011;18335;51.486;7.562;2022-10-03T01:03:22;19.73;;;5.10;;
31760;SDS011;18335;51.486;7.562;2022-10-03T01:06:03;18.90;;;5.55;;
31760;SDS011;18335;51.486;7.562;2022-10-03T01:08:42;18.23;;;4.45;;
31760;SDS011;18335;51.486;7.562;2022-10-03T01:11:24;22.02;;;6.40;;
31760;SDS011;18335;51.486;7.562;2022-10-03T01:14:04;22.42;;;5.38;;
31760;SDS011;18335;51.486;7.562;2022-10-03T01:16:42;23.10;;;4.95;;
31760;SDS011;18335;51.486;7.562;2022-10-03T01:19:28;18.83;;;4.33;;
31760;SDS011;18335;51.486;7.562;2022-10-03T01:22:21;25.17;;;6.93;;
31760;SDS011;18335;51.486;7.562;2022-10-03T01:25:09;27.23;;;6.05;;
31760;SDS011;18335;51.486;7.562;2022-10-03T01:27:42;22.90;;;5.53;;
31760;SDS011;18335;51.486;7.562;2022-10-03T01:30:38;24.48;;;7.15;;
31760;SDS011;18335;51.486;7.562;2022-10-03T01:33:09;20.42;;;5.03;;
31760;SDS011;18335;51.486;7.562;2022-10-03T01:35:44;25.35;;;5.88;;
31760;SDS011;18335;51.486;7.562;2022-10-03T01:38:21;26.75;;;5.07;;
31760;SDS011;18335;51.486;7.562;2022-10-03T01:40:56;25.70;;;5.50;;
31760;SDS011;18335;51.486;7.562;2022-10-03T01:43:32;22.55;;;4.88;;
31760;SDS011;18335;51.486;7.562;2022-10-03T01:46:06;23.27;;;5.28;;
31760;SDS011;18335;51.486;7.562;2022-10-03T01:48:41;21.08;;;4.95;;
31760;SDS011;18335;51.486;7.562;2022-10-03T01:51:13;18.98;;;4.82;;
31760;SDS011;18335;51.486;7.562;2022-10-03T01:53:47;16.55;;;6.07;;
31760;SDS011;18335;51.486;7.562;2022-10-03T01:56:25;19.48;;;4.68;;
31760;SDS011;18335;51.486;7.562;2022-10-03T01:58:59;20.38;;;5.50;;
31760;SDS011;18335;51.486;7.562;2022-10-03T02:01:35;19.23;;;5.82;;
31760;SDS011;18335;51.486;7.562;2022-10-03T02:04:13;19.35;;;5.72;;
31760;SDS011;18335;51.486;7.562;2022-10-03T02:06:49;23.55;;;5.28;;
31760;SDS011;18335;51.486;7.562;2022-10-03T02:09:26;17.63;;;5.18;;
31760;SDS011;18335;51.486;7.562;2022-10-03T02:12:03;20.67;;;5.75;;
31760;SDS011;18335;51.486;7.562;2022-10-03T02:14:38;27.60;;;6.70;;
31760;SDS011;18335;51.486;7.562;2022-10-03T02:17:20;23.55;;;6.22;;
31760;SDS011;18335;51.486;7.562;2022-10-03T02:19:55;26.15;;;6.68;;
31760;SDS011;18335;51.486;7.562;2022-10-03T02:22:28;21.60;;;5.78;;
31760;SDS011;18335;51.486;7.562;2022-10-03T02:25:03;26.10;;;5.63;;
31760;SDS011;18335;51.486;7.562;2022-10-03T02:27:42;22.70;;;7.18;;
31760;SDS011;18335;51.486;7.562;2022-10-03T02:30:23;22.85;;;7.70;;
31760;SDS011;18335;51.486;7.562;2022-10-03T02:36:13;19.50;;;5.43;;
31760;SDS011;18335;51.486;7.562;2022-10-03T02:38:56;16.00;;;5.47;;
31760;SDS011;18335;51.486;7.562;2022-10-03T02:41:57;22.08;;;7.05;;
31760;SDS011;18335;51.486;7.562;2022-10-03T02:44:52;24.60;;;6.82;;
31760;SDS011;18335;51.486;7.562;2022-10-03T02:47:51;15.52;;;4.80;;
31760;SDS011;18335;51.486;7.562;2022-10-03T02:54:21;27.92;;;5.65;;
31760;SDS011;18335;51.486;7.562;2022-10-03T03:00:08;23.52;;;6.10;;
31760;SDS011;18335;51.486;7.562;2022-10-03T03:02:43;18.63;;;6.50;;
31760;SDS011;18335;51.486;7.562;2022-10-03T03:08:54;18.98;;;5.07;;
31760;SDS011;18335;51.486;7.562;2022-10-03T03:18:11;18.52;;;7.03;;
31760;SDS011;18335;51.486;7.562;2022-10-03T03:20:48;18.20;;;7.05;;
31760;SDS011;18335;51.486;7.562;2022-10-03T03:23:27;19.50;;;5.55;;
31760;SDS011;18335;51.486;7.562;2022-10-03T03:26:09;21.42;;;6.43;;
31760;SDS011;18335;51.486;7.562;2022-10-03T03:28:53;20.13;;;5.40;;
31760;SDS011;18335;51.486;7.562;2022-10-03T03:31:33;27.92;;;7.03;;
31760;SDS011;18335;51.486;7.562;2022-10-03T03:34:08;25.67;;;5.78;;
31760;SDS011;18335;51.486;7.562;2022-10-03T03:36:49;23.52;;;6.20;;
31760;SDS011;18335;51.486;7.562;2022-10-03T03:39:29;19.40;;;5.70;;
31760;SDS011;18335;51.486;7.562;2022-10-03T03:42:18;18.88;;;5.47;;
31760;SDS011;18335;51.486;7.562;2022-10-03T03:45:08;21.42;;;6.80;;
31760;SDS011;18335;51.486;7.562;2022-10-03T03:47:48;20.02;;;5.85;;
31760;SDS011;18335;51.486;7.562;2022-10-03T03:50:26;15.75;;;5.55;;
31760;SDS011;18335;51.486;7.562;2022-10-03T03:53:20;28.20;;;7.03;;
31760;SDS011;18335;51.486;7.562;2022-10-03T03:56:13;22.35;;;5.40;;
31760;SDS011;18335;51.486;7.562;2022-10-03T03:58:56;24.70;;;6.55;;
31760;SDS011;18335;51.486;7.562;2022-10-03T04:01:35;20.92;;;5.75;;
31760;SDS011;18335;51.486;7.562;2022-10-03T04:04:16;18.10;;;5.57;;
31760;SDS011;18335;51.486;7.562;2022-10-03T04:06:55;15.93;;;5.47;;
31760;SDS011;18335;51.486;7.562;2022-10-03T04:09:40;22.08;;;5.82;;
31760;SDS011;18335;51.486;7.562;2022-10-03T04:12:34;22.83;;;7.95;;
31760;SDS011;18335;51.486;7.562;2022-10-03T04:15:19;17.08;;;6.47;;
31760;SDS011;18335;51.486;7.562;2022-10-03T04:18:02;21.00;;;5.72;;
31760;SDS011;18335;51.486;7.562;2022-10-03T04:21:00;26.08;;;6.65;;
31760;SDS011;18335;51.486;7.562;2022-10-03T04:24:01;19.10;;;6.68;;
31760;SDS011;18335;51.486;7.562;2022-10-03T04:26:52;16.70;;;6.07;;
31760;SDS011;18335;51.486;7.562;2022-10-03T04:29:36;19.92;;;6.93;;
31760;SDS011;18335;51.486;7.562;2022-10-03T04:32:13;22.88;;;7.25;;
31760;SDS011;18335;51.486;7.562;2022-10-03T04:34:56;24.15;;;6.40;;
31760;SDS011;18335;51.486;7.562;2022-10-03T04:37:42;17.80;;;5.93;;
31760;SDS011;18335;51.486;7.562;2022-10-03T04:40:22;20.25;;;7.35;;
31760;SDS011;18335;51.486;7.562;2022-10-03T04:42:59;22.25;;;5.38;;
31760;SDS011;18335;51.486;7.562;2022-10-03T04:45:36;17.55;;;5.47;;
31760;SDS011;18335;51.486;7.562;2022-10-03T04:48:09;14.82;;;6.10;;
31760;SDS011;18335;51.486;7.562;2022-10-03T04:50:46;23.42;;;6.45;;
31760;SDS011;18335;51.486;7.562;2022-10-03T04:53:27;19.48;;;5.32;;
31760;SDS011;18335;51.486;7.562;2022-10-03T04:56:12;17.75;;;7.00;;
31760;SDS011;18335;51.486;7.562;2022-10-03T04:58:49;19.25;;;6.28;;
31760;SDS011;18335;51.486;7.562;2022-10-03T05:01:22;23.10;;;5.70;;
31760;SDS011;18335;51.486;7.562;2022-10-03T05:04:00;20.23;;;5.90;;
31760;SDS011;18335;51.486;7.562;2022-10-03T05:06:36;20.40;;;6.78;;
31760;SDS011;18335;51.486;7.562;2022-10-03T05:09:16;21.92;;;6.10;;
31760;SDS011;18335;51.486;7.562;2022-10-03T05:11:52;20.67;;;6.55;;
31760;SDS011;18335;51.486;7.562;2022-10-03T05:14:39;19.77;;;5.53;;
31760;SDS011;18335;51.486;7.562;2022-10-03T05:17:16;20.52;;;6.30;;
31760;SDS011;18335;51.486;7.562;2022-10-03T05:19:52;20.52;;;6.32;;
31760;SDS011;18335;51.486;7.562;2022-10-03T05:22:43;20.08;;;6.78;;
31760;SDS011;18335;51.486;7.562;2022-10-03T05:25:20;22.52;;;6.00;;
31760;SDS011;18335;51.486;7.562;2022-10-03T05:27:55;21.95;;;5.82;;
31760;SDS011;18335;51.486;7.562;2022-10-03T05:30:34;24.75;;;6.88;;
31760;SDS011;18335;51.486;7.562;2022-10-03T05:33:10;16.77;;;7.60;;
31760;SDS011;18335;51.486;7.562;2022-10-03T05:35:49;19.88;;;6.35;;
31760;SDS011;18335;51.486;7.562;2022-10-03T05:38:43;24.10;;;8.10;;
31760;SDS011;18335;51.486;7.562;2022-10-03T05:41:36;25.40;;;6.63;;
31760;SDS011;18335;51.486;7.562;2022-10-03T05:44:07;21.08;;;6.85;;
31760;SDS011;18335;51.486;7.562;2022-10-03T05:46:40;23.05;;;7.18;;
31760;SDS011;18335;51.486;7.562;2022-10-03T05:49:25;18.92;;;6.38;;
31760;SDS011;18335;51.486;7.562;2022-10-03T05:55:11;29.08;;;7.78;;
31760;SDS011;18335;51.486;7.562;2022-10-03T05:58:02;21.55;;;6.72;;
31760;SDS011;18335;51.486;7.562;2022-10-03T06:00:57;23.50;;;6.18;;
31760;SDS011;18335;51.486;7.562;2022-10-03T06:03:55;26.75;;;7.40;;
31760;SDS011;18335;51.486;7.562;2022-10-03T06:06:32;22.33;;;9.45;;
31760;SDS011;18335;51.486;7.562;2022-10-03T06:12:33;17.90;;;6.95;;
31760;SDS011;18335;51.486;7.562;2022-10-03T06:18:11;21.10;;;6.75;;
31760;SDS011;18335;51.486;7.562;2022-10-03T06:30:25;19.75;;;6.18;;
31760;SDS011;18335;51.486;7.562;2022-10-03T06:33:24;20.73;;;6.78;;
31760;SDS011;18335;51.486;7.562;2022-10-03T06:36:23;16.90;;;6.78;;
31760;SDS011;18335;51.486;7.562;2022-10-03T06:42:20;22.23;;;6.45;;
31760;SDS011;18335;51.486;7.562;2022-10-03T06:45:15;25.60;;;6.75;;
31760;SDS011;18335;51.486;7.562;2022-10-03T06:48:08;20.00;;;6.85;;
31760;SDS011;18335;51.486;7.562;2022-10-03T06:50:49;19.73;;;6.75;;
31760;SDS011;18335;51.486;7.562;2022-10-03T06:53:31;24.88;;;6.65;;
31760;SDS011;18335;51.486;7.562;2022-10-03T07:05:23;26.05;;;7.65;;
31760;SDS011;18335;51.486;7.562;2022-10-03T07:11:24;27.10;;;7.22;;
31760;SDS011;18335;51.486;7.562;2022-10-03T07:14:16;22.45;;;5.68;;
31760;SDS011;18335;51.486;7.562;2022-10-03T07:17:21;19.85;;;6.32;;
31760;SDS011;18335;51.486;7.562;2022-10-03T07:26:14;20.52;;;7.95;;
31760;SDS011;18335;51.486;7.562;2022-10-03T07:29:07;19.85;;;6.00;;
31760;SDS011;18335;51.486;7.562;2022-10-03T07:31:49;20.13;;;6.72;;
31760;SDS011;18335;51.486;7.562;2022-10-03T07:34:46;21.70;;;7.00;;
31760;SDS011;18335;51.486;7.562;2022-10-03T07:37:42;19.45;;;7.35;;
31760;SDS011;18335;51.486;7.562;2022-10-03T07:41:00;19.67;;;6.93;;
31760;SDS011;18335;51.486;7.562;2022-10-03T07:46:44;29.30;;;7.40;;
31760;SDS011;18335;51.486;7.562;2022-10-03T07:49:38;20.90;;;6.03;;
31760;SDS011;18335;51.486;7.562;2022-10-03T07:55:29;21.60;;;6.78;;
31760;SDS011;18335;51.486;7.562;2022-10-03T07:58:20;18.00;;;6.72;;
31760;SDS011;18335;51.486;7.562;2022-10-03T08:01:05;27.38;;;7.75;;
31760;SDS011;18335;51.486;7.562;2022-10-03T08:03:49;20.27;;;7.00;;
31760;SDS011;18335;51.486;7.562;2022-10-03T08:06:39;24.83;;;7.18;;
31760;SDS011;18335;51.486;7.562;2022-10-03T08:15:22;21.48;;;7.90;;
31760;SDS011;18335;51.486;7.562;2022-10-03T08:21:00;18.95;;;7.05;;
31760;SDS011;18335;51.486;7.562;2022-10-03T08:26:53;24.20;;;9.35;;
31760;SDS011;18335;51.486;7.562;2022-10-03T08:32:57;25.70;;;7.03;;
31760;SDS011;18335;51.486;7.562;2022-10-03T08:35:35;32.38;;;9.30;;
31760;SDS011;18335;51.486;7.562;2022-10-03T08:41:27;20.15;;;7.22;;
31760;SDS011;18335;51.486;7.562;2022-10-03T08:44:24;31.00;;;8.85;;
31760;SDS011;18335;51.486;7.562;2022-10-03T08:47:20;18.90;;;7.55;;
31760;SDS011;18335;51.486;7.562;2022-10-03T08:53:33;20.25;;;5.95;;
31760;SDS011;18335;51.486;7.562;2022-10-03T08:56:17;23.27;;;6.60;;
31760;SDS011;18335;51.486;7.562;2022-10-03T08:58:56;20.05;;;6.25;;
31760;SDS011;18335;51.486;7.562;2022-10-03T09:01:36;19.10;;;6.20;;
31760;SDS011;18335;51.486;7.562;2022-10-03T09:07:49;18.08;;;5.95;;
31760;SDS011;18335;51.486;7.562;2022-10-03T09:10:50;20.33;;;4.57;;
31760;SDS011;18335;51.486;7.562;2022-10-03T09:16:39;16.85;;;5.15;;
31760;SDS011;18335;51.486;7.562;2022-10-03T09:22:38;16.97;;;5.53;;
31760;SDS011;18335;51.486;7.562;2022-10-03T09:31:41;18.05;;;5.30;;
31760;SDS011;18335;51.486;7.562;2022-10-03T09:34:46;14.15;;;3.90;;
31760;SDS011;18335;51.486;7.562;2022-10-03T09:37:35;14.38;;;3.38;;
31760;SDS011;18335;51.486;7.562;2022-10-03T09:40:39;13.70;;;3.55;;
31760;SDS011;18335;51.486;7.562;2022-10-03T09:43:32;18.17;;;4.43;;
31760;SDS011;18335;51.486;7.562;2022-10-03T09:49:45;17.60;;;4.28;;
31760;SDS011;18335;51.486;7.562;2022-10-03T09:52:35;16.42;;;3.67;;
31760;SDS011;18335;51.486;7.562;2022-10-03T09:55:33;18.20;;;3.63;;
31760;SDS011;18335;51.486;7.562;2022-10-03T09:58:13;13.70;;;3.83;;
31760;SDS011;18335;51.486;7.562;2022-10-03T10:01:12;16.20;;;4.53;;
31760;SDS011;18335;51.486;7.562;2022-10-03T10:03:55;20.25;;;3.58;;
31760;SDS011;18335;51.486;7.562;2022-10-03T10:06:55;18.73;;;3.88;;
31760;SDS011;18335;51.486;7.562;2022-10-03T10:09:51;16.17;;;3.47;;
31760;SDS011;18335;51.486;7.562;2022-10-03T10:12:50;16.83;;;2.88;;
31760;SDS011;18335;51.486;7.562;2022-10-03T10:15:49;11.68;;;2.70;;
31760;SDS011;18335;51.486;7.562;2022-10-03T10:21:46;18.23;;;3.40;;
31760;SDS011;18335;51.486;7.562;2022-10-03T10:24:37;15.32;;;3.42;;
31760;SDS011;18335;51.486;7.562;2022-10-03T10:33:47;12.75;;;3.05;;
31760;SDS011;18335;51.486;7.562;2022-10-03T10:37:13;21.60;;;3.92;;
31760;SDS011;18335;51.486;7.562;2022-10-03T10:40:09;14.63;;;2.88;;
31760;SDS011;18335;51.486;7.562;2022-10-03T10:46:25;14.32;;;2.65;;
31760;SDS011;18335;51.486;7.562;2022-10-03T10:49:29;12.77;;;2.38;;
31760;SDS011;18335;51.486;7.562;2022-10-03T10:52:43;14.27;;;2.67;;
31760;SDS011;18335;51.486;7.562;2022-10-03T10:55:38;11.48;;;2.28;;
31760;SDS011;18335;51.486;7.562;2022-10-03T11:05:21;12.82;;;1.90;;
31760;SDS011;18335;51.486;7.562;2022-10-03T11:08:14;10.95;;;2.08;;
31760;SDS011;18335;51.486;7.562;2022-10-03T11:11:04;14.65;;;2.42;;
31760;SDS011;18335;51.486;7.562;2022-10-03T11:14:04;10.27;;;2.15;;
31760;SDS011;18335;51.486;7.562;2022-10-03T11:17:09;8.30;;;1.63;;
31760;SDS011;18335;51.486;7.562;2022-10-03T11:20:01;11.05;;;1.70;;
31760;SDS011;18335;51.486;7.562;2022-10-03T11:26:15;8.85;;;1.60;;
31760;SDS011;18335;51.486;7.562;2022-10-03T11:29:08;10.50;;;2.05;;
31760;SDS011;18335;51.486;7.562;2022-10-03T11:32:09;11.95;;;1.65;;
31760;SDS011;18335;51.486;7.562;2022-10-03T11:38:15;12.40;;;1.77;;
31760;SDS011;18335;51.486;7.562;2022-10-03T11:40:50;10.80;;;1.92;;
31760;SDS011;18335;51.486;7.562;2022-10-03T11:46:40;12.30;;;1.98;;
31760;SDS011;18335;51.486;7.562;2022-10-03T11:49:23;8.07;;;1.38;;
31760;SDS011;18335;51.486;7.562;2022-10-03T11:52:06;7.25;;;1.60;;
31760;SDS011;18335;51.486;7.562;2022-10-03T11:54:48;13.68;;;3.67;;
31760;SDS011;18335;51.486;7.562;2022-10-03T11:57:26;6.90;;;1.52;;
31760;SDS011;18335;51.486;7.562;2022-10-03T11:59:56;9.38;;;1.58;;
31760;SDS011;18335;51.486;7.562;2022-10-03T12:02:42;10.48;;;1.58;;
31760;SDS011;18335;51.486;7.562;2022-10-03T12:05:22;11.82;;;2.15;;
31760;SDS011;18335;51.486;7.562;2022-10-03T12:07:56;12.02;;;1.65;;
31760;SDS011;18335;51.486;7.562;2022-10-03T12:10:55;9.60;;;1.98;;
31760;SDS011;18335;51.486;7.562;2022-10-03T12:13:40;7.63;;;2.20;;
31760;SDS011;18335;51.486;7.562;2022-10-03T12:16:12;10.25;;;2.28;;
31760;SDS011;18335;51.486;7.562;2022-10-03T12:18:52;8.93;;;1.88;;
31760;SDS011;18335;51.486;7.562;2022-10-03T12:21:29;9.57;;;1.67;;
31760;SDS011;18335;51.486;7.562;2022-10-03T12:26:52;10.88;;;1.60;;
31760;SDS011;18335;51.486;7.562;2022-10-03T12:29:25;7.35;;;1.40;;
31760;SDS011;18335;51.486;7.562;2022-10-03T12:32:00;9.45;;;1.73;;
31760;SDS011;18335;51.486;7.562;2022-10-03T12:34:43;8.73;;;2.25;;
31760;SDS011;18335;51.486;7.562;2022-10-03T12:40:12;9.93;;;1.80;;
31760;SDS011;18335;51.486;7.562;2022-10-03T12:42:47;8.38;;;2.05;;
31760;SDS011;18335;51.486;7.562;2022-10-03T12:45:22;9.52;;;2.03;;
31760;SDS011;18335;51.486;7.562;2022-10-03T12:47:57;7.25;;;2.17;;
31760;SDS011;18335;51.486;7.562;2022-10-03T12:50:40;9.75;;;2.50;;
31760;SDS011;18335;51.486;7.562;2022-10-03T12:53:20;9.85;;;1.80;;
31760;SDS011;18335;51.486;7.562;2022-10-03T12:55:57;8.05;;;1.88;;
31760;SDS011;18335;51.486;7.562;2022-10-03T12:58:35;6.78;;;1.88;;
31760;SDS011;18335;51.486;7.562;2022-10-03T13:01:18;7.55;;;1.60;;
31760;SDS011;18335;51.486;7.562;2022-10-03T13:03:52;11.10;;;1.85;;
31760;SDS011;18335;51.486;7.562;2022-10-03T13:06:30;8.77;;;1.75;;
31760;SDS011;18335;51.486;7.562;2022-10-03T13:09:10;9.63;;;2.20;;
31760;SDS011;18335;51.486;7.562;2022-10-03T13:12:01;11.77;;;1.80;;
31760;SDS011;18335;51.486;7.562;2022-10-03T13:14:39;7.47;;;1.60;;
31760;SDS011;18335;51.486;7.562;2022-10-03T13:17:15;9.77;;;1.40;;
31760;SDS011;18335;51.486;7.562;2022-10-03T13:22:29;9.75;;;1.42;;
31760;SDS011;18335;51.486;7.562;2022-10-03T13:25:06;9.52;;;1.50;;
31760;SDS011;18335;51.486;7.562;2022-10-03T13:27:40;5.40;;;1.17;;
31760;SDS011;18335;51.486;7.562;2022-10-03T13:30:15;7.97;;;1.90;;
31760;SDS011;18335;51.486;7.562;2022-10-03T13:32:48;7.60;;;1.90;;
31760;SDS011;18335;51.486;7.562;2022-10-03T13:35:21;6.47;;;1.05;;
31760;SDS011;18335;51.486;7.562;2022-10-03T13:41:18;6.13;;;1.33;;
31760;SDS011;18335;51.486;7.562;2022-10-03T13:43:55;9.70;;;1.70;;
31760;SDS011;18335;51.486;7.562;2022-10-03T13:46:25;9.13;;;1.73;;
31760;SDS011;18335;51.486;7.562;2022-10-03T13:48:57;8.50;;;1.50;;
31760;SDS011;18335;51.486;7.562;2022-10-03T13:51:28;8.40;;;1.80;;
31760;SDS011;18335;51.486;7.562;2022-10-03T13:54:01;8.40;;;1.60;;
31760;SDS011;18335;51.486;7.562;2022-10-03T13:56:39;8.82;;;1.70;;
31760;SDS011;18335;51.486;7.562;2022-10-03T13:59:20;5.75;;;1.10;;
31760;SDS011;18335;51.486;7.562;2022-10-03T14:02:11;13.38;;;1.65;;
31760;SDS011;18335;51.486;7.562;2022-10-03T14:07:54;7.80;;;1.50;;
31760;SDS011;18335;51.486;7.562;2022-10-03T14:10:38;7.18;;;1.25;;
31760;SDS011;18335;51.486;7.562;2022-10-03T14:13:18;9.75;;;1.65;;
31760;SDS011;18335;51.486;7.562;2022-10-03T14:15:53;7.35;;;1.67;;
31760;SDS011;18335;51.486;7.562;2022-10-03T14:18:34;7.28;;;1.83;;
31760;SDS011;18335;51.486;7.562;2022-10-03T14:24:15;7.82;;;1.38;;
31760;SDS011;18335;51.486;7.562;2022-10-03T14:27:01;7.32;;;1.40;;
31760;SDS011;18335;51.486;7.562;2022-10-03T14:29:39;7.93;;;1.58;;
31760;SDS011;18335;51.486;7.562;2022-10-03T14:32:19;9.20;;;1.77;;
31760;SDS011;18335;51.486;7.562;2022-10-03T14:34:52;9.15;;;1.50;;
31760;SDS011;18335;51.486;7.562;2022-10-03T14:37:29;11.02;;;2.58;;
31760;SDS011;18335;51.486;7.562;2022-10-03T14:40:08;5.05;;;1.30;;
31760;SDS011;18335;51.486;7.562;2022-10-03T14:42:47;7.20;;;1.95;;
31760;SDS011;18335;51.486;7.562;2022-10-03T14:45:25;9.95;;;1.58;;
31760;SDS011;18335;51.486;7.562;2022-10-03T14:47:55;10.27;;;1.63;;
31760;SDS011;18335;51.486;7.562;2022-10-03T14:50:27;7.43;;;1.38;;
31760;SDS011;18335;51.486;7.562;2022-10-03T14:52:56;7.72;;;1.50;;
31760;SDS011;18335;51.486;7.562;2022-10-03T14:55:29;8.85;;;1.83;;
31760;SDS011;18335;51.486;7.562;2022-10-03T14:57:59;9.32;;;1.70;;
31760;SDS011;18335;51.486;7.562;2022-10-03T15:00:37;4.53;;;1.10;;
31760;SDS011;18335;51.486;7.562;2022-10-03T15:03:18;8.77;;;1.55;;
31760;SDS011;18335;51.486;7.562;2022-10-03T15:09:08;7.70;;;1.70;;
31760;SDS011;18335;51.486;7.562;2022-10-03T15:11:41;8.43;;;1.60;;
31760;SDS011;18335;51.486;7.562;2022-10-03T15:14:12;8.60;;;1.30;;
31760;SDS011;18335;51.486;7.562;2022-10-03T15:16:42;8.35;;;1.77;;
31760;SDS011;18335;51.486;7.562;2022-10-03T15:19:12;8.07;;;1.92;;
31760;SDS011;18335;51.486;7.562;2022-10-03T15:21:43;9.48;;;2.75;;
31760;SDS011;18335;51.486;7.562;2022-10-03T15:24:16;6.00;;;1.58;;
31760;SDS011;18335;51.486;7.562;2022-10-03T15:26:47;7.57;;;1.17;;
31760;SDS011;18335;51.486;7.562;2022-10-03T15:29:17;8.70;;;1.25;;
31760;SDS011;18335;51.486;7.562;2022-10-03T15:31:49;7.85;;;1.52;;
31760;SDS011;18335;51.486;7.562;2022-10-03T15:34:17;11.05;;;1.48;;
31760;SDS011;18335;51.486;7.562;2022-10-03T15:36:47;10.70;;;1.50;;
31760;SDS011;18335;51.486;7.562;2022-10-03T15:39:17;5.63;;;1.40;;
31760;SDS011;18335;51.486;7.562;2022-10-03T15:41:49;6.15;;;1.30;;
31760;SDS011;18335;51.486;7.562;2022-10-03T15:44:20;4.38;;;1.10;;
31760;SDS011;18335;51.486;7.562;2022-10-03T15:46:55;6.35;;;1.33;;
31760;SDS011;18335;51.486;7.562;2022-10-03T15:49:26;5.85;;;1.30;;
31760;SDS011;18335;51.486;7.562;2022-10-03T15:51:56;8.10;;;1.63;;
31760;SDS011;18335;51.486;7.562;2022-10-03T15:54:26;13.60;;;1.77;;
31760;SDS011;18335;51.486;7.562;2022-10-03T15:56:57;6.22;;;1.35;;
31760;SDS011;18335;51.486;7.562;2022-10-03T15:59:27;8.70;;;1.70;;
31760;SDS011;18335;51.486;7.562;2022-10-03T16:01:59;8.30;;;1.40;;
31760;SDS011;18335;51.486;7.562;2022-10-03T16:04:33;6.72;;;1.17;;
31760;SDS011;18335;51.486;7.562;2022-10-03T16:07:05;6.80;;;1.55;;
31760;SDS011;18335;51.486;7.562;2022-10-03T16:09:38;6.32;;;1.70;;
31760;SDS011;18335;51.486;7.562;2022-10-03T16:15:18;10.38;;;1.70;;
31760;SDS011;18335;51.486;7.562;2022-10-03T16:17:49;8.65;;;1.70;;
31760;SDS011;18335;51.486;7.562;2022-10-03T16:20:19;9.18;;;2.13;;
31760;SDS011;18335;51.486;7.562;2022-10-03T16:22:51;9.15;;;2.17;;
31760;SDS011;18335;51.486;7.562;2022-10-03T16:25:20;7.45;;;1.90;;
31760;SDS011;18335;51.486;7.562;2022-10-03T16:27:51;7.93;;;2.53;;
31760;SDS011;18335;51.486;7.562;2022-10-03T16:30:21;7.10;;;2.95;;
31760;SDS011;18335;51.486;7.562;2022-10-03T16:32:55;8.93;;;2.95;;
31760;SDS011;18335;51.486;7.562;2022-10-03T16:35:33;13.55;;;3.63;;
31760;SDS011;18335;51.486;7.562;2022-10-03T16:38:02;13.70;;;4.03;;
31760;SDS011;18335;51.486;7.562;2022-10-03T16:40:33;13.32;;;4.88;;
31760;SDS011;18335;51.486;7.562;2022-10-03T16:43:02;13.15;;;3.95;;
31760;SDS011;18335;51.486;7.562;2022-10-03T16:45:35;14.40;;;4.53;;
31760;SDS011;18335;51.486;7.562;2022-10-03T16:48:12;9.88;;;3.25;;
31760;SDS011;18335;51.486;7.562;2022-10-03T16:51:02;8.52;;;1.88;;
31760;SDS011;18335;51.486;7.562;2022-10-03T16:53:32;11.13;;;2.45;;
31760;SDS011;18335;51.486;7.562;2022-10-03T16:56:02;6.63;;;2.00;;
31760;SDS011;18335;51.486;7.562;2022-10-03T16:58:32;9.45;;;2.25;;
31760;SDS011;18335;51.486;7.562;2022-10-03T17:01:04;9.10;;;2.50;;
31760;SDS011;18335;51.486;7.562;2022-10-03T17:03:36;8.23;;;2.30;;
31760;SDS011;18335;51.486;7.562;2022-10-03T17:06:13;10.27;;;3.67;;
31760;SDS011;18335;51.486;7.562;2022-10-03T17:08:47;9.30;;;2.28;;
31760;SDS011;18335;51.486;7.562;2022-10-03T17:11:18;5.75;;;1.70;;
31760;SDS011;18335;51.486;7.562;2022-10-03T17:13:49;6.78;;;1.65;;
31760;SDS011;18335;51.486;7.562;2022-10-03T17:16:21;12.52;;;1.90;;
31760;SDS011;18335;51.486;7.562;2022-10-03T17:19:06;10.27;;;2.30;;
31760;SDS011;18335;51.486;7.562;2022-10-03T17:21:42;9.65;;;1.90;;
31760;SDS011;18335;51.486;7.562;2022-10-03T17:24:19;8.13;;;2.45;;
31760;SDS011;18335;51.486;7.562;2022-10-03T17:26:55;11.07;;;2.17;;
31760;SDS011;18335;51.486;7.562;2022-10-03T17:29:31;11.77;;;2.63;;
31760;SDS011;18335;51.486;7.562;2022-10-03T17:32:01;10.98;;;2.40;;
31760;SDS011;18335;51.486;7.562;2022-10-03T17:34:39;11.70;;;3.00;;
31760;SDS011;18335;51.486;7.562;2022-10-03T17:37:13;9.80;;;2.50;;
31760;SDS011;18335;51.486;7.562;2022-10-03T17:39:55;14.13;;;3.60;;
31760;SDS011;18335;51.486;7.562;2022-10-03T17:42:36;9.43;;;2.30;;
31760;SDS011;18335;51.486;7.562;2022-10-03T17:45:11;10.48;;;3.45;;
31760;SDS011;18335;51.486;7.562;2022-10-03T17:47:52;13.05;;;5.65;;
31760;SDS011;18335;51.486;7.562;2022-10-03T17:50:26;15.88;;;6.22;;
31760;SDS011;18335;51.486;7.562;2022-10-03T17:52:56;19.52;;;6.20;;
31760;SDS011;18335;51.486;7.562;2022-10-03T17:55:26;17.30;;;6.53;;
31760;SDS011;18335;51.486;7.562;2022-10-03T17:57:58;17.30;;;6.00;;
31760;SDS011;18335;51.486;7.562;2022-10-03T18:00:30;10.45;;;4.53;;
31760;SDS011;18335;51.486;7.562;2022-10-03T18:03:02;10.38;;;4.57;;
31760;SDS011;18335;51.486;7.562;2022-10-03T18:05:37;17.98;;;4.60;;
31760;SDS011;18335;51.486;7.562;2022-10-03T18:08:10;14.85;;;3.97;;
31760;SDS011;18335;51.486;7.562;2022-10-03T18:10:40;13.98;;;3.78;;
31760;SDS011;18335;51.486;7.562;2022-10-03T18:13:14;12.23;;;3.30;;
31760;SDS011;18335;51.486;7.562;2022-10-03T18:18:46;14.55;;;4.05;;
31760;SDS011;18335;51.486;7.562;2022-10-03T18:27:17;11.20;;;3.15;;
31760;SDS011;18335;51.486;7.562;2022-10-03T18:30:12;9.32;;;2.83;;
31760;SDS011;18335;51.486;7.562;2022-10-03T18:32:42;9.90;;;3.25;;
31760;SDS011;18335;51.486;7.562;2022-10-03T18:35:11;10.60;;;3.10;;
31760;SDS011;18335;51.486;7.562;2022-10-03T18:37:51;9.57;;;2.65;;
31760;SDS011;18335;51.486;7.562;2022-10-03T18:40:21;8.80;;;2.33;;
31760;SDS011;18335;51.486;7.562;2022-10-03T18:42:52;8.95;;;2.65;;
31760;SDS011;18335;51.486;7.562;2022-10-03T18:45:19;11.45;;;3.15;;
31760;SDS011;18335;51.486;7.562;2022-10-03T18:47:51;11.45;;;4.63;;
31760;SDS011;18335;51.486;7.562;2022-10-03T18:50:21;14.68;;;4.97;;
31760;SDS011;18335;51.486;7.562;2022-10-03T18:52:54;10.45;;;4.43;;